createdAt,value
2016-12-20T00:00:14.473Z,99.99
2016-12-20T00:01:25.464Z,99.99
2016-12-20T00:02:36.445Z,99.99
2016-12-20T00:03:47.434Z,99.99
2016-12-20T00:04:58.419Z,99.99
2016-12-20T00:06:09.403Z,99.99
2016-12-20T00:07:20.419Z,99.99
2016-12-20T00:08:31.428Z,99.99
2016-12-20T00:09:42.618Z,99.99
2016-12-20T00:10:53.607Z,99.99
2016-12-20T00:12:04.592Z,99.99
2016-12-20T00:13:15.783Z,99.99
2016-12-20T00:14:26.771Z,99.99
2016-12-20T00:15:37.811Z,99.99
2016-12-20T00:16:48.803Z,99.99
2016-12-20T00:17:59.783Z,99.99
2016-12-20T00:19:10.765Z,99.99
2016-12-20T00:20:22.193Z,99.99
2016-12-20T00:21:33.179Z,99.99
2016-12-20T00:22:44.363Z,99.99
2016-12-20T00:23:55.349Z,99.99
2016-12-20T00:25:06.329Z,99.99
2016-12-20T00:26:17.314Z,99.99
2016-12-20T00:27:28.296Z,99.99
2016-12-20T00:28:39.289Z,99.99
2016-12-20T00:29:50.306Z,99.99
2016-12-20T00:31:01.282Z,99.99
2016-12-20T00:32:12.272Z,99.99
2016-12-20T00:33:23.466Z,99.99
2016-12-20T00:34:34.446Z,99.99
2016-12-20T00:35:45.461Z,99.99
2016-12-20T00:36:56.644Z,99.99
2016-12-20T00:38:07.628Z,99.99
2016-12-20T00:39:18.611Z,99.99
2016-12-20T00:40:29.663Z,99.99
2016-12-20T00:41:40.647Z,99.99
2016-12-20T00:42:51.632Z,99.99
2016-12-20T00:44:02.622Z,99.99
2016-12-20T00:45:13.609Z,99.99
2016-12-20T00:46:24.587Z,99.99
2016-12-20T00:47:35.610Z,99.99
2016-12-20T00:48:46.794Z,99.99
2016-12-20T00:49:57.783Z,99.99
2016-12-20T00:51:08.810Z,99.99
2016-12-20T00:52:19.993Z,99.99
2016-12-20T00:53:30.976Z,99.99
2016-12-20T00:54:41.965Z,99.99
2016-12-20T00:55:53.002Z,99.99
2016-12-20T00:57:03.983Z,99.99
2016-12-20T00:58:14.962Z,99.99
2016-12-20T00:59:26.151Z,99.99
2016-12-20T01:00:37.136Z,99.99
2016-12-20T01:01:48.118Z,99.99
2016-12-20T01:02:59.094Z,99.99
2016-12-20T01:04:10.076Z,99.99
2016-12-20T01:05:21.268Z,99.99
2016-12-20T01:06:32.241Z,99.99
2016-12-20T01:07:43.217Z,99.99
2016-12-20T01:08:54.207Z,99.99
2016-12-20T01:10:05.196Z,99.99
2016-12-20T01:11:16.384Z,99.99
2016-12-20T01:12:27.571Z,99.99
2016-12-20T01:13:38.554Z,99.99
2016-12-20T01:14:49.534Z,99.99
2016-12-20T01:16:00.513Z,99.99
2016-12-20T01:17:11.495Z,99.99
2016-12-20T01:18:22.476Z,99.99
2016-12-20T01:19:33.461Z,99.99
2016-12-20T01:20:44.441Z,99.99
2016-12-20T01:21:55.429Z,99.99
2016-12-20T01:23:06.418Z,99.99
2016-12-20T01:24:17.816Z,99.99
2016-12-20T01:25:29.001Z,99.99
2016-12-20T01:26:39.985Z,99.99
2016-12-20T01:27:50.980Z,99.99
2016-12-20T01:29:01.961Z,99.99
2016-12-20T01:30:12.942Z,99.99
2016-12-20T01:31:23.928Z,99.99
2016-12-20T01:32:34.937Z,99.99
2016-12-20T01:33:45.918Z,99.99
2016-12-20T01:34:56.905Z,99.99
2016-12-20T01:36:07.939Z,99.99
2016-12-20T01:37:18.924Z,99.99
2016-12-20T01:38:30.110Z,99.99
2016-12-20T01:39:41.297Z,99.99
2016-12-20T01:40:52.288Z,99.99
2016-12-20T01:42:03.272Z,99.99
2016-12-20T01:43:14.455Z,99.99
2016-12-20T01:44:25.438Z,99.99
2016-12-20T01:45:36.421Z,99.99
2016-12-20T01:46:47.410Z,99.99
2016-12-20T01:47:58.394Z,99.99
2016-12-20T01:49:09.381Z,99.99
2016-12-20T01:50:20.381Z,99.99
2016-12-20T01:51:31.572Z,99.99
2016-12-20T01:52:42.555Z,99.99
2016-12-20T01:53:53.542Z,99.99
2016-12-20T01:55:04.729Z,99.99
2016-12-20T01:56:15.711Z,99.99
2016-12-20T01:57:26.699Z,99.99
2016-12-20T01:58:37.716Z,99.99
2016-12-20T01:59:48.701Z,99.99
2016-12-20T02:00:59.698Z,99.99
2016-12-20T02:02:10.683Z,99.99
2016-12-20T02:03:21.867Z,99.99
2016-12-20T02:04:33.259Z,99.99
2016-12-20T02:05:44.293Z,99.99
2016-12-20T02:06:55.280Z,99.99
2016-12-20T02:08:06.275Z,99.99
2016-12-20T02:09:17.259Z,99.99
2016-12-20T02:10:28.238Z,99.99
2016-12-20T02:11:39.227Z,99.99
2016-12-20T02:12:50.209Z,99.99
2016-12-20T02:14:01.198Z,99.99
2016-12-20T02:15:12.231Z,99.99
2016-12-20T02:16:23.215Z,99.99
2016-12-20T02:17:34.387Z,99.99
2016-12-20T02:18:45.376Z,99.99
2016-12-20T02:19:56.361Z,99.99
2016-12-20T02:21:07.598Z,99.99
2016-12-20T02:22:18.588Z,99.99
2016-12-20T02:23:29.577Z,99.99
2016-12-20T02:24:40.556Z,99.99
2016-12-20T02:25:51.551Z,99.99
2016-12-20T02:27:02.990Z,99.99
2016-12-20T02:28:13.976Z,99.99
2016-12-20T02:29:24.964Z,99.99
2016-12-20T02:30:36.147Z,99.99
2016-12-20T02:31:47.131Z,99.99
2016-12-20T02:32:58.160Z,99.99
2016-12-20T02:34:09.141Z,99.99
2016-12-20T02:35:20.125Z,99.99
2016-12-20T02:36:31.124Z,99.99
2016-12-20T02:37:42.148Z,99.99
2016-12-20T02:38:53.384Z,99.99
2016-12-20T02:40:04.382Z,99.99
2016-12-20T02:41:15.367Z,99.99
2016-12-20T02:42:26.347Z,99.99
2016-12-20T02:43:37.323Z,99.99
2016-12-20T02:44:48.378Z,99.99
2016-12-20T02:45:59.362Z,99.99
2016-12-20T02:47:10.379Z,99.99
2016-12-20T02:48:21.364Z,99.99
2016-12-20T02:49:32.347Z,99.99
2016-12-20T02:50:43.535Z,99.99
2016-12-20T02:51:54.510Z,99.99
2016-12-20T02:53:05.495Z,99.99
2016-12-20T02:54:16.478Z,99.99
2016-12-20T02:55:27.477Z,99.99
2016-12-20T02:56:38.456Z,99.99
2016-12-20T02:57:49.436Z,99.99
2016-12-20T02:59:00.423Z,99.99
2016-12-20T03:00:11.410Z,99.99
2016-12-20T03:01:22.400Z,99.99
2016-12-20T03:02:33.376Z,99.99
2016-12-20T03:03:44.360Z,99.99
2016-12-20T03:04:55.547Z,99.99
2016-12-20T03:06:06.528Z,99.99
2016-12-20T03:07:17.513Z,99.99
2016-12-20T03:08:28.496Z,99.99
2016-12-20T03:09:39.486Z,99.99
2016-12-20T03:10:50.497Z,99.99
2016-12-20T03:12:01.486Z,99.99
2016-12-20T03:13:12.475Z,99.99
2016-12-20T03:14:23.462Z,99.99
2016-12-20T03:15:34.452Z,99.99
2016-12-20T03:16:45.444Z,99.99
2016-12-20T03:17:56.826Z,99.99
2016-12-20T03:19:07.803Z,99.99
2016-12-20T03:20:18.789Z,99.99
2016-12-20T03:21:29.777Z,99.99
2016-12-20T03:22:40.765Z,99.99
2016-12-20T03:23:51.747Z,99.99
2016-12-20T03:25:02.727Z,99.99
2016-12-20T03:26:13.757Z,99.99
2016-12-20T03:27:24.742Z,99.99
2016-12-20T03:28:35.722Z,99.99
2016-12-20T03:29:46.705Z,99.99
2016-12-20T03:30:57.889Z,99.99
2016-12-20T03:32:08.875Z,99.99
2016-12-20T03:33:19.893Z,99.99
2016-12-20T03:34:30.875Z,99.99
2016-12-20T03:35:41.865Z,99.99
2016-12-20T03:36:52.847Z,99.99
2016-12-20T03:38:03.830Z,99.99
2016-12-20T03:39:14.817Z,99.99
2016-12-20T03:40:26.208Z,99.99
2016-12-20T03:41:37.189Z,99.99
2016-12-20T03:42:48.174Z,99.99
2016-12-20T03:43:59.146Z,99.99
2016-12-20T03:45:10.129Z,99.99
2016-12-20T03:46:21.118Z,99.99
2016-12-20T03:47:32.101Z,99.99
2016-12-20T03:48:43.286Z,99.99
2016-12-20T03:49:54.266Z,99.99
2016-12-20T03:51:05.459Z,99.99
2016-12-20T03:52:16.441Z,99.99
2016-12-20T03:53:27.415Z,99.99
2016-12-20T03:54:38.399Z,99.99
2016-12-20T03:55:49.382Z,99.99
2016-12-20T03:57:00.364Z,99.99
2016-12-20T03:58:11.381Z,99.99
2016-12-20T03:59:22.371Z,99.99
2016-12-20T04:00:33.404Z,99.99
2016-12-20T04:01:44.416Z,99.99
2016-12-20T04:02:55.607Z,99.99
2016-12-20T04:04:06.594Z,99.99
2016-12-20T04:05:17.569Z,99.99
2016-12-20T04:06:28.547Z,99.99
2016-12-20T04:07:39.553Z,99.99
2016-12-20T04:08:50.537Z,99.99
2016-12-20T04:10:01.522Z,99.99
2016-12-20T04:11:12.515Z,99.99
2016-12-20T04:12:23.502Z,99.99
2016-12-20T04:13:34.478Z,99.99
2016-12-20T04:14:45.458Z,99.99
2016-12-20T04:15:56.488Z,99.99
2016-12-20T04:17:07.468Z,99.99
2016-12-20T04:18:18.450Z,99.99
2016-12-20T04:19:29.432Z,99.99
2016-12-20T04:20:40.425Z,99.99
2016-12-20T04:21:51.403Z,99.99
2016-12-20T04:23:02.386Z,99.99
2016-12-20T04:24:13.370Z,99.99
2016-12-20T04:25:24.357Z,99.99
2016-12-20T04:26:35.334Z,99.99
2016-12-20T04:27:46.317Z,99.99
2016-12-20T04:28:57.503Z,99.99
2016-12-20T04:30:08.482Z,99.99
2016-12-20T04:31:19.667Z,99.99
2016-12-20T04:32:30.651Z,99.99
2016-12-20T04:33:41.840Z,99.99
2016-12-20T04:34:52.828Z,99.99
2016-12-20T04:36:03.864Z,99.99
2016-12-20T04:37:14.844Z,99.99
2016-12-20T04:38:25.831Z,99.99
2016-12-20T04:39:36.818Z,99.99
2016-12-20T04:40:47.797Z,99.99
2016-12-20T04:41:58.783Z,99.99
2016-12-20T04:43:09.792Z,99.99
2016-12-20T04:44:20.786Z,99.99
2016-12-20T04:45:31.973Z,99.99
2016-12-20T04:46:43.158Z,99.99
2016-12-20T04:47:54.136Z,99.99
2016-12-20T04:49:05.525Z,99.99
2016-12-20T04:50:16.507Z,99.99
2016-12-20T04:51:27.497Z,99.99
2016-12-20T04:52:38.682Z,99.99
2016-12-20T04:53:49.855Z,99.99
2016-12-20T04:55:00.861Z,99.99
2016-12-20T04:56:11.843Z,99.99
2016-12-20T04:57:22.833Z,99.99
2016-12-20T04:58:33.809Z,99.99
2016-12-20T04:59:44.786Z,99.99
2016-12-20T05:00:55.799Z,99.99
2016-12-20T05:02:06.991Z,99.99
2016-12-20T05:03:17.968Z,99.99
2016-12-20T05:04:28.951Z,99.99
2016-12-20T05:05:39.936Z,99.99
2016-12-20T05:06:50.918Z,99.99
2016-12-20T05:08:01.901Z,99.99
2016-12-20T05:09:12.889Z,99.99
2016-12-20T05:10:24.068Z,99.99
2016-12-20T05:11:35.041Z,99.99
2016-12-20T05:12:46.023Z,99.99
2016-12-20T05:13:57.204Z,99.99
2016-12-20T05:15:08.183Z,99.99
2016-12-20T05:16:19.370Z,99.99
2016-12-20T05:17:30.355Z,99.99
2016-12-20T05:18:41.542Z,99.99
2016-12-20T05:19:52.525Z,99.99
2016-12-20T05:21:03.504Z,99.99
2016-12-20T05:22:14.480Z,99.99
2016-12-20T05:23:25.659Z,99.99
2016-12-20T05:24:36.646Z,99.99
2016-12-20T05:25:47.687Z,99.99
2016-12-20T05:26:58.871Z,99.99
2016-12-20T05:28:09.853Z,99.99
2016-12-20T05:29:20.834Z,99.99
2016-12-20T05:30:31.872Z,99.99
2016-12-20T05:31:43.057Z,99.99
2016-12-20T05:32:54.040Z,99.99
2016-12-20T05:34:05.023Z,99.99
2016-12-20T05:35:16.006Z,99.99
2016-12-20T05:36:26.988Z,99.99
2016-12-20T05:37:37.967Z,99.99
2016-12-20T05:38:48.957Z,99.99
2016-12-20T05:39:59.945Z,99.99
2016-12-20T05:41:11.160Z,99.99
2016-12-20T05:42:22.147Z,99.99
2016-12-20T05:43:33.133Z,99.99
2016-12-20T05:44:44.119Z,99.99
2016-12-20T05:45:55.336Z,99.99
2016-12-20T05:47:06.321Z,99.99
2016-12-20T05:48:17.303Z,99.99
2016-12-20T05:49:28.494Z,99.99
2016-12-20T05:50:39.485Z,99.99
2016-12-20T05:51:50.465Z,99.99
2016-12-20T05:53:01.452Z,99.99
2016-12-20T05:54:12.429Z,99.99
2016-12-20T05:55:23.460Z,99.99
2016-12-20T05:56:34.647Z,99.99
2016-12-20T05:57:45.628Z,99.99
2016-12-20T05:58:56.609Z,99.99
2016-12-20T06:00:07.623Z,99.99
2016-12-20T06:01:18.611Z,99.99
2016-12-20T06:02:29.795Z,99.99
2016-12-20T06:03:40.776Z,99.99
2016-12-20T06:04:51.963Z,99.99
2016-12-20T06:06:02.940Z,99.99
2016-12-20T06:07:14.156Z,99.99
2016-12-20T06:08:25.136Z,99.99
2016-12-20T06:09:36.119Z,99.99
2016-12-20T06:10:47.110Z,99.99
2016-12-20T06:11:58.292Z,99.99
2016-12-20T06:13:09.315Z,99.99
2016-12-20T06:14:20.501Z,99.99
2016-12-20T06:15:31.480Z,99.99
2016-12-20T06:16:42.469Z,99.99
2016-12-20T06:17:53.446Z,99.99
2016-12-20T06:19:04.431Z,99.99
2016-12-20T06:20:15.614Z,99.99
2016-12-20T06:21:26.607Z,99.99
2016-12-20T06:22:37.591Z,99.99
2016-12-20T06:23:48.576Z,99.99
2016-12-20T06:24:59.561Z,99.99
2016-12-20T06:26:10.998Z,99.99
2016-12-20T06:27:22.186Z,99.99
2016-12-20T06:28:33.176Z,99.99
2016-12-20T06:29:44.372Z,99.99
2016-12-20T06:30:55.755Z,99.99
2016-12-20T06:32:06.728Z,99.99
2016-12-20T06:33:17.908Z,99.99
2016-12-20T06:34:29.090Z,99.99
2016-12-20T06:35:40.071Z,99.99
2016-12-20T06:36:51.058Z,99.99
2016-12-20T06:38:02.051Z,99.99
2016-12-20T06:39:13.242Z,99.99
2016-12-20T06:40:24.222Z,99.99
2016-12-20T06:41:35.205Z,99.99
2016-12-20T06:42:46.181Z,99.99
2016-12-20T06:43:57.172Z,99.99
2016-12-20T06:45:08.371Z,99.99
2016-12-20T06:46:19.348Z,99.99
2016-12-20T06:47:30.333Z,99.99
2016-12-20T06:48:41.313Z,99.99
2016-12-20T06:49:52.300Z,99.99
2016-12-20T06:51:03.276Z,99.99
2016-12-20T06:52:14.253Z,99.99
2016-12-20T06:53:25.242Z,99.99
2016-12-20T06:54:36.254Z,99.99
2016-12-20T06:55:47.292Z,99.99
2016-12-20T06:56:58.474Z,99.99
2016-12-20T06:58:09.455Z,99.99
2016-12-20T06:59:20.436Z,99.99
2016-12-20T07:00:31.823Z,99.99
2016-12-20T07:01:42.798Z,99.99
2016-12-20T07:02:54.001Z,99.99
2016-12-20T07:04:05.385Z,99.99
2016-12-20T07:05:16.398Z,99.99
2016-12-20T07:06:27.386Z,99.99
2016-12-20T07:07:38.368Z,99.99
2016-12-20T07:08:49.347Z,99.99
2016-12-20T07:10:00.322Z,99.99
2016-12-20T07:11:11.308Z,99.99
2016-12-20T07:12:22.321Z,99.99
2016-12-20T07:13:33.506Z,99.99
2016-12-20T07:14:44.494Z,99.99
2016-12-20T07:15:55.477Z,99.99
2016-12-20T07:17:06.655Z,99.99
2016-12-20T07:18:17.639Z,99.99
2016-12-20T07:19:28.624Z,99.99
2016-12-20T07:20:39.608Z,99.99
2016-12-20T07:21:50.592Z,99.99
2016-12-20T07:23:01.573Z,99.99
2016-12-20T07:24:12.565Z,99.99
2016-12-20T07:25:23.742Z,99.99
2016-12-20T07:26:34.716Z,99.99
2016-12-20T07:27:45.714Z,99.99
2016-12-20T07:28:56.696Z,99.99
2016-12-20T07:30:07.670Z,99.99
2016-12-20T07:31:18.660Z,99.99
2016-12-20T07:32:29.841Z,99.99
2016-12-20T07:33:40.826Z,99.99
2016-12-20T07:34:51.804Z,99.99
2016-12-20T07:36:02.992Z,99.99
2016-12-20T07:37:13.973Z,99.99
2016-12-20T07:38:24.960Z,99.99
2016-12-20T07:39:35.941Z,99.99
2016-12-20T07:40:47.125Z,99.99
2016-12-20T07:41:58.102Z,99.99
2016-12-20T07:43:09.086Z,99.99
2016-12-20T07:44:20.277Z,99.99
2016-12-20T07:45:31.265Z,99.99
2016-12-20T07:46:42.272Z,99.99
2016-12-20T07:47:53.252Z,99.99
2016-12-20T07:49:04.238Z,99.99
2016-12-20T07:50:15.228Z,99.99
2016-12-20T07:51:26.217Z,99.99
2016-12-20T07:52:37.202Z,99.99
2016-12-20T07:53:48.590Z,99.99
2016-12-20T07:54:59.765Z,99.99
2016-12-20T07:56:11.160Z,99.99
2016-12-20T07:57:22.137Z,99.99
2016-12-20T07:58:33.143Z,99.99
2016-12-20T07:59:44.119Z,99.99
2016-12-20T08:00:55.146Z,99.99
2016-12-20T08:02:06.131Z,99.99
2016-12-20T08:03:17.316Z,99.99
2016-12-20T08:04:28.297Z,99.99
2016-12-20T08:05:39.282Z,99.99
2016-12-20T08:06:50.261Z,99.99
2016-12-20T08:08:01.250Z,99.99
2016-12-20T08:09:12.223Z,99.99
2016-12-20T08:10:23.207Z,99.99
2016-12-20T08:11:34.191Z,99.99
2016-12-20T08:12:45.168Z,99.99
2016-12-20T08:13:56.353Z,99.99
2016-12-20T08:15:07.548Z,99.99
2016-12-20T08:16:18.726Z,99.99
2016-12-20T08:17:29.712Z,99.99
2016-12-20T08:18:40.700Z,99.99
2016-12-20T08:19:51.685Z,99.99
2016-12-20T08:21:02.710Z,99.99
2016-12-20T08:22:13.692Z,99.99
2016-12-20T08:23:24.678Z,99.99
2016-12-20T08:24:35.858Z,99.99
2016-12-20T08:25:46.839Z,99.99
2016-12-20T08:26:58.025Z,99.99
2016-12-20T08:28:09.005Z,99.99
2016-12-20T08:29:19.991Z,99.99
2016-12-20T08:30:30.970Z,99.99
2016-12-20T08:31:41.977Z,99.99
2016-12-20T08:32:53.367Z,99.99
2016-12-20T08:34:04.552Z,99.99
2016-12-20T08:35:15.529Z,99.99
2016-12-20T08:36:26.517Z,99.99
2016-12-20T08:37:37.698Z,99.99
2016-12-20T08:38:48.671Z,99.99
2016-12-20T08:39:59.658Z,99.99
2016-12-20T08:41:10.691Z,99.99
2016-12-20T08:42:21.677Z,99.99
2016-12-20T08:43:32.660Z,99.99
2016-12-20T08:44:43.647Z,99.99
2016-12-20T08:45:54.630Z,99.99
2016-12-20T08:47:05.614Z,99.99
2016-12-20T08:48:16.634Z,99.99
2016-12-20T08:49:27.822Z,99.99
2016-12-20T08:50:38.817Z,99.99
2016-12-20T08:51:49.839Z,99.99
2016-12-20T08:53:00.829Z,99.99
2016-12-20T08:54:11.825Z,99.99
2016-12-20T08:55:23.012Z,99.99
2016-12-20T08:56:34.199Z,99.99
2016-12-20T08:57:45.188Z,99.99
2016-12-20T08:58:56.178Z,99.99
2016-12-20T09:00:07.358Z,99.99
2016-12-20T09:01:18.349Z,99.99
2016-12-20T09:02:29.337Z,99.99
2016-12-20T09:03:40.324Z,99.99
2016-12-20T09:04:51.316Z,99.99
2016-12-20T09:06:02.317Z,99.99
2016-12-20T09:07:13.308Z,99.99
2016-12-20T09:08:24.493Z,99.99
2016-12-20T09:09:35.485Z,99.99
2016-12-20T09:10:46.479Z,99.99
2016-12-20T09:11:57.666Z,99.99
2016-12-20T09:13:08.663Z,99.99
2016-12-20T09:14:19.847Z,99.99
2016-12-20T09:15:30.835Z,99.99
2016-12-20T09:16:42.032Z,99.99
2016-12-20T09:17:53.024Z,99.5
2016-12-20T09:19:04.014Z,96.74
2016-12-20T09:20:15.004Z,95.41
2016-12-20T09:21:25.997Z,95.7
2016-12-20T09:22:36.989Z,93.79
2016-12-20T09:23:47.979Z,93.23
2016-12-20T09:24:58.975Z,92.85
2016-12-20T09:26:09.967Z,92.03
2016-12-20T09:27:20.965Z,92.41
2016-12-20T09:28:31.969Z,91.18
2016-12-20T09:29:42.958Z,89.66
2016-12-20T09:30:54.143Z,87.99
2016-12-20T09:32:05.149Z,87.52
2016-12-20T09:33:16.144Z,85.9
2016-12-20T09:34:27.141Z,83.42
2016-12-20T09:35:38.130Z,84.38
2016-12-20T09:36:49.122Z,84.47
2016-12-20T09:38:00.122Z,84
2016-12-20T09:39:11.116Z,84.38
2016-12-20T09:40:22.313Z,85.71
2016-12-20T09:41:33.314Z,85.28
2016-12-20T09:42:44.307Z,83.75
2016-12-20T09:43:55.303Z,81.7
2016-12-20T09:45:06.328Z,81.13
2016-12-20T09:46:17.330Z,80.18
2016-12-20T09:47:28.329Z,80.27
2016-12-20T09:48:39.534Z,79.8
2016-12-20T09:49:50.732Z,79.64
2016-12-20T09:51:01.730Z,80.75
2016-12-20T09:52:12.730Z,79.6
2016-12-20T09:53:23.724Z,79.27
2016-12-20T09:54:34.755Z,79.13
2016-12-20T09:55:45.784Z,80.88
2016-12-20T09:56:56.789Z,78.98
2016-12-20T09:58:07.791Z,78.98
2016-12-20T09:59:18.988Z,77.87
2016-12-20T10:00:30.036Z,76.73
2016-12-20T10:01:41.234Z,77.49
2016-12-20T10:02:52.232Z,78.06
2016-12-20T10:04:03.425Z,77.97
2016-12-20T10:05:14.435Z,77.2
2016-12-20T10:06:25.434Z,76.64
2016-12-20T10:07:36.438Z,76.06
2016-12-20T10:08:47.443Z,75.78
2016-12-20T10:09:58.434Z,76.82
2016-12-20T10:11:09.431Z,74.96
2016-12-20T10:12:20.431Z,75.4
2016-12-20T10:13:31.447Z,76.31
2016-12-20T10:14:42.450Z,77.64
2016-12-20T10:15:53.440Z,76.4
2016-12-20T10:17:04.447Z,77.45
2016-12-20T10:18:15.447Z,76.79
2016-12-20T10:19:26.448Z,77.07
2016-12-20T10:20:37.492Z,77.07
2016-12-20T10:21:48.505Z,76.06
2016-12-20T10:22:59.510Z,76.82
2016-12-20T10:24:10.510Z,77.26
2016-12-20T10:25:21.516Z,75.96
2016-12-20T10:26:32.538Z,75.59
2016-12-20T10:27:43.565Z,74.82
2016-12-20T10:28:54.559Z,75.01
2016-12-20T10:30:05.563Z,75.53
2016-12-20T10:31:16.562Z,74.38
2016-12-20T10:32:27.559Z,73.37
2016-12-20T10:33:38.566Z,72.23
2016-12-20T10:34:49.561Z,72.32
2016-12-20T10:36:00.749Z,70.79
2016-12-20T10:37:11.744Z,69.97
2016-12-20T10:38:22.735Z,69.59
2016-12-20T10:39:33.728Z,68.63
2016-12-20T10:40:44.925Z,68.54
2016-12-20T10:41:55.930Z,69.02
2016-12-20T10:43:06.928Z,69.21
2016-12-20T10:44:18.126Z,69.59
2016-12-20T10:45:29.178Z,68.54
2016-12-20T10:46:40.180Z,70.03
2016-12-20T10:47:51.385Z,70.13
2016-12-20T10:49:02.380Z,69.84
2016-12-20T10:50:13.460Z,70.22
2016-12-20T10:51:24.666Z,70.47
2016-12-20T10:52:35.671Z,70.19
2016-12-20T10:53:46.673Z,70.67
2016-12-20T10:54:57.679Z,72.25
2016-12-20T10:56:08.678Z,73.07
2016-12-20T10:57:19.679Z,75.13
2016-12-20T10:58:30.680Z,77.19
2016-12-20T10:59:41.687Z,77.28
2016-12-20T11:00:52.697Z,78.42
2016-12-20T11:02:03.702Z,77.42
2016-12-20T11:03:14.697Z,75.99
2016-12-20T11:04:25.717Z,76.27
2016-12-20T11:05:36.723Z,76.18
2016-12-20T11:06:47.723Z,77.61
2016-12-20T11:07:59.127Z,76.94
2016-12-20T11:09:10.129Z,77.32
2016-12-20T11:10:21.137Z,77.32
2016-12-20T11:11:32.127Z,75.99
2016-12-20T11:12:43.136Z,77.56
2016-12-20T11:13:54.138Z,77.66
2016-12-20T11:15:05.186Z,77.47
2016-12-20T11:16:16.185Z,78.67
2016-12-20T11:17:27.419Z,80.76
2016-12-20T11:18:38.420Z,79.72
2016-12-20T11:19:49.420Z,80.66
2016-12-20T11:21:00.456Z,82.24
2016-12-20T11:22:11.647Z,82.62
2016-12-20T11:23:22.642Z,83.91
2016-12-20T11:24:33.635Z,84.39
2016-12-20T11:25:44.621Z,86.47
2016-12-20T11:26:55.617Z,85.72
2016-12-20T11:28:06.618Z,85.81
2016-12-20T11:29:17.614Z,84.2
2016-12-20T11:30:28.858Z,85.43
2016-12-20T11:31:39.840Z,87.62
2016-12-20T11:32:50.839Z,88.38
2016-12-20T11:34:01.835Z,87.71
2016-12-20T11:35:12.881Z,88.53
2016-12-20T11:36:23.867Z,90.8
2016-12-20T11:37:34.860Z,92.18
2016-12-20T11:38:45.853Z,92.18
2016-12-20T11:39:56.863Z,92.94
2016-12-20T11:41:07.933Z,94.37
2016-12-20T11:42:18.923Z,96.17
2016-12-20T11:43:30.119Z,93.99
2016-12-20T11:44:41.139Z,94.27
2016-12-20T11:45:52.134Z,92.99
2016-12-20T11:47:03.127Z,93.75
2016-12-20T11:48:14.119Z,92.23
2016-12-20T11:49:25.110Z,90.61
2016-12-20T11:50:36.308Z,91.75
2016-12-20T11:51:47.303Z,91.28
2016-12-20T11:52:58.291Z,91.09
2016-12-20T11:54:09.283Z,91.09
2016-12-20T11:55:20.283Z,90.52
2016-12-20T11:56:31.272Z,89.67
2016-12-20T11:57:42.269Z,90.61
2016-12-20T11:58:53.256Z,90.8
2016-12-20T12:00:04.243Z,90.42
2016-12-20T12:01:15.460Z,90.47
2016-12-20T12:02:26.656Z,91.71
2016-12-20T12:03:37.652Z,90.66
2016-12-20T12:04:48.849Z,89
2016-12-20T12:05:59.848Z,87.47
2016-12-20T12:07:10.840Z,86.9
2016-12-20T12:08:21.823Z,85.66
2016-12-20T12:09:32.810Z,85.19
2016-12-20T12:10:44.002Z,84.52
2016-12-20T12:11:55.026Z,85.95
2016-12-20T12:13:06.010Z,86.61
2016-12-20T12:14:17.000Z,86.52
2016-12-20T12:15:27.985Z,86.8
2016-12-20T12:16:38.969Z,87.76
2016-12-20T12:17:49.953Z,88.47
2016-12-20T12:19:00.942Z,89.33
2016-12-20T12:20:11.940Z,91.28
2016-12-20T12:21:22.948Z,91.47
2016-12-20T12:22:33.934Z,92.23
2016-12-20T12:23:44.918Z,93.13
2016-12-20T12:24:55.907Z,93.7
2016-12-20T12:26:06.894Z,94.7
2016-12-20T12:27:17.880Z,95.55
2016-12-20T12:28:28.876Z,93.84
2016-12-20T12:29:39.874Z,93.08
2016-12-20T12:30:50.858Z,91.8
2016-12-20T12:32:02.255Z,91.89
2016-12-20T12:33:13.240Z,89.61
2016-12-20T12:34:24.225Z,88.23
2016-12-20T12:35:35.300Z,86.99
2016-12-20T12:36:46.296Z,86.71
2016-12-20T12:37:57.300Z,88.33
2016-12-20T12:39:08.290Z,88.33
2016-12-20T12:40:19.287Z,87.66
2016-12-20T12:41:30.473Z,86.05
2016-12-20T12:42:41.451Z,86.14
2016-12-20T12:43:52.444Z,87.19
2016-12-20T12:45:03.427Z,86.8
2016-12-20T12:46:14.411Z,87.66
2016-12-20T12:47:25.407Z,88.13
2016-12-20T12:48:36.394Z,87.66
2016-12-20T12:49:47.383Z,86.9
2016-12-20T12:50:58.375Z,88.42
2016-12-20T12:52:09.363Z,88.28
2016-12-20T12:53:20.356Z,89.75
2016-12-20T12:54:31.542Z,90
2016-12-20T12:55:42.733Z,90.28
2016-12-20T12:56:53.724Z,89.52
2016-12-20T12:58:04.719Z,89.9
2016-12-20T12:59:15.709Z,90.75
2016-12-20T13:00:26.698Z,91.23
2016-12-20T13:01:37.886Z,90.28
2016-12-20T13:02:49.080Z,92.27
2016-12-20T13:04:00.266Z,93.18
2016-12-20T13:05:11.264Z,94.98
2016-12-20T13:06:22.252Z,95.75
2016-12-20T13:07:33.238Z,97.64
2016-12-20T13:08:44.225Z,97.92
2016-12-20T13:09:55.222Z,97.55
2016-12-20T13:11:06.207Z,95.55
2016-12-20T13:12:17.388Z,95.17
2016-12-20T13:13:28.376Z,93.46
2016-12-20T13:14:39.566Z,93.08
2016-12-20T13:15:50.750Z,92.71
2016-12-20T13:17:01.737Z,93.27
2016-12-20T13:18:12.756Z,95.75
2016-12-20T13:19:23.791Z,95.65
2016-12-20T13:20:34.774Z,93.37
2016-12-20T13:21:45.763Z,94.03
2016-12-20T13:22:56.955Z,95.12
2016-12-20T13:24:07.946Z,97.78
2016-12-20T13:25:18.941Z,98.16
2016-12-20T13:26:29.933Z,99.97
2016-12-20T13:27:40.951Z,99.99
2016-12-20T13:28:51.944Z,99.82
2016-12-20T13:30:03.120Z,99.99
2016-12-20T13:31:14.100Z,99.99
2016-12-20T13:32:25.297Z,99.99
2016-12-20T13:33:36.289Z,99.99
2016-12-20T13:34:47.483Z,99.99
2016-12-20T13:35:58.470Z,99.99
2016-12-20T13:37:09.454Z,99.99
2016-12-20T13:38:20.443Z,99.99
2016-12-20T13:39:31.424Z,99.99
2016-12-20T13:40:42.414Z,99.99
2016-12-20T13:41:53.595Z,99.99
2016-12-20T13:43:04.588Z,99.99
2016-12-20T13:44:15.579Z,99.99
2016-12-20T13:45:26.575Z,99.99
2016-12-20T13:46:37.562Z,99.87
2016-12-20T13:47:48.546Z,99.02
2016-12-20T13:48:59.532Z,97.97
2016-12-20T13:50:10.547Z,99.99
2016-12-20T13:51:21.531Z,99.99
2016-12-20T13:52:32.519Z,99.99
2016-12-20T13:53:43.707Z,99.99
2016-12-20T13:54:54.748Z,99.99
2016-12-20T13:56:05.791Z,99.99
2016-12-20T13:57:16.778Z,99.99
2016-12-20T13:58:28.161Z,99.99
2016-12-20T13:59:39.151Z,99.99
2016-12-20T14:00:50.144Z,99.99
2016-12-20T14:02:01.180Z,99.99
2016-12-20T14:03:12.166Z,99.99
2016-12-20T14:04:23.153Z,99.99
2016-12-20T14:05:34.136Z,99.99
2016-12-20T14:06:45.185Z,99.99
2016-12-20T14:07:56.222Z,99.99
2016-12-20T14:09:07.214Z,99.99
2016-12-20T14:10:18.404Z,99.99
2016-12-20T14:11:29.400Z,99.99
2016-12-20T14:12:40.578Z,99.99
2016-12-20T14:13:51.762Z,99.99
2016-12-20T14:15:02.948Z,99.99
2016-12-20T14:16:13.951Z,99.99
2016-12-20T14:17:24.945Z,99.99
2016-12-20T14:18:35.933Z,99.99
2016-12-20T14:19:46.967Z,99.99
2016-12-20T14:20:57.953Z,99.99
2016-12-20T14:22:09.142Z,99.99
2016-12-20T14:23:20.126Z,99.99
2016-12-20T14:24:31.511Z,99.99
2016-12-20T14:25:42.693Z,99.99
2016-12-20T14:26:53.885Z,99.99
2016-12-20T14:28:04.878Z,99.99
2016-12-20T14:29:15.856Z,99.99
2016-12-20T14:30:26.839Z,99.99
2016-12-20T14:31:37.830Z,99.99
2016-12-20T14:32:49.011Z,99.99
2016-12-20T14:34:00.002Z,99.99
2016-12-20T14:35:10.987Z,99.99
2016-12-20T14:36:21.976Z,99.99
2016-12-20T14:37:33.157Z,99.99
2016-12-20T14:38:44.148Z,99.99
2016-12-20T14:39:55.149Z,99.99
2016-12-20T14:41:06.333Z,99.99
2016-12-20T14:42:17.305Z,99.99
2016-12-20T14:43:28.495Z,99.99
2016-12-20T14:44:39.481Z,99.99
2016-12-20T14:45:50.466Z,99.99
2016-12-20T14:47:01.456Z,99.99
2016-12-20T14:48:12.436Z,99.99
2016-12-20T14:49:23.414Z,99.99
2016-12-20T14:50:34.396Z,99.99
2016-12-20T14:51:45.382Z,99.99
2016-12-20T14:52:56.366Z,99.99
2016-12-20T14:54:07.388Z,99.99
2016-12-20T14:55:18.419Z,99.99
2016-12-20T14:56:29.433Z,99.99
2016-12-20T14:57:40.816Z,99.99
2016-12-20T14:58:51.802Z,99.99
2016-12-20T15:00:02.788Z,99.99
2016-12-20T15:01:13.823Z,99.99
2016-12-20T15:02:24.811Z,99.99
2016-12-20T15:03:35.801Z,99.99
2016-12-20T15:04:46.780Z,99.99
2016-12-20T15:05:57.972Z,99.99
2016-12-20T15:07:09.008Z,99.99
2016-12-20T15:08:19.999Z,99.99
2016-12-20T15:09:30.986Z,99.99
2016-12-20T15:10:41.971Z,99.99
2016-12-20T15:11:53.152Z,99.99
2016-12-20T15:13:04.186Z,99.99
2016-12-20T15:14:15.174Z,99.99
2016-12-20T15:15:26.157Z,99.99